sensor_id;sensor_type;location;lat;lon;timestamp;pressure;altitude;pressure_sealevel;temperature;humidity
26859;BME280;14429;48.346;16.338;2023-05-17T00:01:28;99259.78;;;16.73;62.22
26859;BME280;14429;48.346;16.338;2023-05-17T00:12:24;99281.31;;;16.12;65.48
26859;BME280;14429;48.346;16.338;2023-05-17T00:14:51;99295.19;;;15.72;68.00
26859;BME280;14429;48.346;16.338;2023-05-17T00:23:03;99296.63;;;16.90;60.63
26859;BME280;14429;48.346;16.338;2023-05-17T00:25:28;99293.03;;;17.33;58.50
26859;BME280;14429;48.346;16.338;2023-05-17T00:27:54;99301.28;;;16.80;62.32
26859;BME280;14429;48.346;16.338;2023-05-17T00:30:21;99297.28;;;16.84;61.91
26859;BME280;14429;48.346;16.338;2023-05-17T00:32:47;99299.78;;;17.37;57.78
26859;BME280;14429;48.346;16.338;2023-05-17T00:35:12;99305.06;;;16.43;64.55
26859;BME280;14429;48.346;16.338;2023-05-17T00:37:56;99305.25;;;16.93;60.13
26859;BME280;14429;48.346;16.338;2023-05-17T00:40:22;99303.56;;;16.75;62.77
26859;BME280;14429;48.346;16.338;2023-05-17T00:42:47;99308.94;;;16.75;61.94
26859;BME280;14429;48.346;16.338;2023-05-17T00:45:12;99308.88;;;17.01;59.06
26859;BME280;14429;48.346;16.338;2023-05-17T00:50:24;99306.25;;;17.44;57.17
26859;BME280;14429;48.346;16.338;2023-05-17T00:53:08;99302.78;;;17.34;57.89
26859;BME280;14429;48.346;16.338;2023-05-17T00:55:35;99301.13;;;16.99;60.45
26859;BME280;14429;48.346;16.338;2023-05-17T01:04:08;99302.06;;;17.24;57.67
26859;BME280;14429;48.346;16.338;2023-05-17T01:09:18;99302.19;;;17.98;54.34
26859;BME280;14429;48.346;16.338;2023-05-17T01:11:51;99303.88;;;17.66;55.77
26859;BME280;14429;48.346;16.338;2023-05-17T01:17:28;99313.50;;;18.18;53.39
26859;BME280;14429;48.346;16.338;2023-05-17T01:20:04;99305.03;;;18.13;53.38
26859;BME280;14429;48.346;16.338;2023-05-17T01:22:42;99300.06;;;18.01;54.26
26859;BME280;14429;48.346;16.338;2023-05-17T01:25:28;99324.19;;;17.78;54.82
26859;BME280;14429;48.346;16.338;2023-05-17T01:33:30;99334.44;;;17.74;54.72
26859;BME280;14429;48.346;16.338;2023-05-17T01:35:56;99332.31;;;17.60;55.68
26859;BME280;14429;48.346;16.338;2023-05-17T01:38:40;99333.81;;;17.55;56.35
26859;BME280;14429;48.346;16.338;2023-05-17T01:41:11;99327.63;;;17.62;55.55
26859;BME280;14429;48.346;16.338;2023-05-17T01:43:42;99333.69;;;17.64;54.69
26859;BME280;14429;48.346;16.338;2023-05-17T01:46:13;99330.97;;;18.07;53.08
26859;BME280;14429;48.346;16.338;2023-05-17T01:48:48;99341.38;;;17.34;57.21
26859;BME280;14429;48.346;16.338;2023-05-17T01:51:18;99345.47;;;17.21;57.78
26859;BME280;14429;48.346;16.338;2023-05-17T01:54:06;99353.06;;;16.91;59.17
26859;BME280;14429;48.346;16.338;2023-05-17T02:02:24;99364.47;;;17.54;54.58
26859;BME280;14429;48.346;16.338;2023-05-17T02:10:36;99356.66;;;16.65;60.17
26859;BME280;14429;48.346;16.338;2023-05-17T02:15:46;99373.03;;;17.15;56.03
26859;BME280;14429;48.346;16.338;2023-05-17T02:18:12;99373.03;;;16.45;60.49
26859;BME280;14429;48.346;16.338;2023-05-17T02:20:37;99375.75;;;16.45;60.82
26859;BME280;14429;48.346;16.338;2023-05-17T02:23:03;99377.38;;;16.29;59.76
26859;BME280;14429;48.346;16.338;2023-05-17T02:25:47;99373.72;;;17.52;53.97
26859;BME280;14429;48.346;16.338;2023-05-17T02:28:12;99379.16;;;17.59;53.64
26859;BME280;14429;48.346;16.338;2023-05-17T02:30:38;99381.94;;;17.67;53.65
26859;BME280;14429;48.346;16.338;2023-05-17T02:33:05;99381.13;;;17.92;52.58
26859;BME280;14429;48.346;16.338;2023-05-17T02:38:16;99382.47;;;17.96;52.16
26859;BME280;14429;48.346;16.338;2023-05-17T02:46:28;99394.97;;;17.97;52.63
26859;BME280;14429;48.346;16.338;2023-05-17T02:48:58;99388.63;;;18.06;52.04
26859;BME280;14429;48.346;16.338;2023-05-17T02:51:23;99385.66;;;18.16;50.98
26859;BME280;14429;48.346;16.338;2023-05-17T02:53:49;99395.41;;;18.09;51.32
26859;BME280;14429;48.346;16.338;2023-05-17T02:56:14;99405.53;;;17.90;51.95
26859;BME280;14429;48.346;16.338;2023-05-17T02:58:40;99403.78;;;17.99;51.45
26859;BME280;14429;48.346;16.338;2023-05-17T03:01:05;99400.66;;;18.11;51.14
26859;BME280;14429;48.346;16.338;2023-05-17T03:03:31;99394.78;;;18.15;51.21
26859;BME280;14429;48.346;16.338;2023-05-17T03:11:46;99419.56;;;17.52;53.65
26859;BME280;14429;48.346;16.338;2023-05-17T03:14:12;99415.38;;;17.74;52.13
26859;BME280;14429;48.346;16.338;2023-05-17T03:16:37;99407.63;;;17.96;51.26
26859;BME280;14429;48.346;16.338;2023-05-17T03:19:04;99424.13;;;18.10;50.76
26859;BME280;14429;48.346;16.338;2023-05-17T03:24:16;99430.72;;;18.16;50.37
26859;BME280;14429;48.346;16.338;2023-05-17T03:26:41;99433.59;;;18.14;50.49
26859;BME280;14429;48.346;16.338;2023-05-17T03:29:26;99435.16;;;18.00;51.42
26859;BME280;14429;48.346;16.338;2023-05-17T03:34:37;99441.03;;;18.20;49.96
26859;BME280;14429;48.346;16.338;2023-05-17T04:22:45;99553.88;;;18.17;49.11
26859;BME280;14429;48.346;16.338;2023-05-17T04:25:10;99555.44;;;18.02;49.66
26859;BME280;14429;48.346;16.338;2023-05-17T04:27:36;99561.19;;;17.90;49.96
26859;BME280;14429;48.346;16.338;2023-05-17T04:30:02;99567.78;;;17.44;52.87
26859;BME280;14429;48.346;16.338;2023-05-17T04:32:28;99566.94;;;17.60;51.01
26859;BME280;14429;48.346;16.338;2023-05-17T04:34:53;99558.41;;;17.82;50.97
26859;BME280;14429;48.346;16.338;2023-05-17T04:37:19;99569.34;;;17.98;49.52
26859;BME280;14429;48.346;16.338;2023-05-17T04:39:46;99569.81;;;17.76;50.28
26859;BME280;14429;48.346;16.338;2023-05-17T04:42:11;99567.41;;;18.00;49.31
26859;BME280;14429;48.346;16.338;2023-05-17T04:44:37;99571.84;;;18.08;49.07
26859;BME280;14429;48.346;16.338;2023-05-17T04:47:02;99573.25;;;18.12;48.89
26859;BME280;14429;48.346;16.338;2023-05-17T04:49:28;99580.59;;;17.32;52.60
26859;BME280;14429;48.346;16.338;2023-05-17T04:51:53;99586.69;;;16.99;54.14
26859;BME280;14429;48.346;16.338;2023-05-17T04:54:19;99583.16;;;17.78;49.83
26859;BME280;14429;48.346;16.338;2023-05-17T04:56:45;99588.16;;;17.90;49.43
26859;BME280;14429;48.346;16.338;2023-05-17T04:59:11;99600.97;;;17.88;49.41
26859;BME280;14429;48.346;16.338;2023-05-17T05:01:36;99599.09;;;17.71;50.11
26859;BME280;14429;48.346;16.338;2023-05-17T05:04:02;99605.66;;;17.42;51.55
26859;BME280;14429;48.346;16.338;2023-05-17T05:06:27;99608.19;;;17.70;50.50
26859;BME280;14429;48.346;16.338;2023-05-17T05:08:52;99616.13;;;17.19;52.45
26859;BME280;14429;48.346;16.338;2023-05-17T05:11:18;99614.38;;;17.53;51.34
26859;BME280;14429;48.346;16.338;2023-05-17T05:13:44;99618.28;;;17.42;52.03
26859;BME280;14429;48.346;16.338;2023-05-17T05:16:10;99626.28;;;17.34;52.35
26859;BME280;14429;48.346;16.338;2023-05-17T05:18:36;99619.38;;;17.49;51.83
26859;BME280;14429;48.346;16.338;2023-05-17T05:21:01;99610.00;;;17.53;51.66
26859;BME280;14429;48.346;16.338;2023-05-17T05:23:27;99625.91;;;17.46;52.08
26859;BME280;14429;48.346;16.338;2023-05-17T05:25:52;99637.81;;;17.53;51.97
26859;BME280;14429;48.346;16.338;2023-05-17T05:28:18;99628.50;;;17.48;52.09
26859;BME280;14429;48.346;16.338;2023-05-17T05:30:44;99639.28;;;17.48;52.30
26859;BME280;14429;48.346;16.338;2023-05-17T05:33:10;99642.16;;;17.37;52.78
26859;BME280;14429;48.346;16.338;2023-05-17T05:35:35;99644.47;;;17.32;52.94
26859;BME280;14429;48.346;16.338;2023-05-17T05:38:02;99654.34;;;17.41;52.62
26859;BME280;14429;48.346;16.338;2023-05-17T05:40:27;99657.59;;;17.44;52.62
26859;BME280;14429;48.346;16.338;2023-05-17T05:42:53;99661.13;;;17.45;52.80
26859;BME280;14429;48.346;16.338;2023-05-17T05:45:18;99673.59;;;17.46;52.88
26859;BME280;14429;48.346;16.338;2023-05-17T05:47:45;99675.34;;;17.37;52.87
26859;BME280;14429;48.346;16.338;2023-05-17T05:50:11;99677.59;;;17.42;53.02
26859;BME280;14429;48.346;16.338;2023-05-17T05:52:36;99686.50;;;17.06;53.73
26859;BME280;14429;48.346;16.338;2023-05-17T05:55:02;99692.97;;;17.32;53.51
26859;BME280;14429;48.346;16.338;2023-05-17T05:57:27;99691.88;;;17.25;53.45
26859;BME280;14429;48.346;16.338;2023-05-17T05:59:53;99687.16;;;17.36;53.35
26859;BME280;14429;48.346;16.338;2023-05-17T06:02:19;99704.34;;;17.26;53.85
26859;BME280;14429;48.346;16.338;2023-05-17T06:04:46;99704.34;;;17.26;53.72
26859;BME280;14429;48.346;16.338;2023-05-17T06:07:12;99702.66;;;17.06;53.80
26859;BME280;14429;48.346;16.338;2023-05-17T06:09:37;99712.59;;;17.25;54.00
26859;BME280;14429;48.346;16.338;2023-05-17T06:12:03;99701.09;;;17.23;54.17
26859;BME280;14429;48.346;16.338;2023-05-17T06:14:29;99696.75;;;16.56;56.08
26859;BME280;14429;48.346;16.338;2023-05-17T06:16:54;99698.47;;;16.76;55.55
26859;BME280;14429;48.346;16.338;2023-05-17T06:19:19;99698.13;;;17.16;54.58
26859;BME280;14429;48.346;16.338;2023-05-17T06:21:46;99699.25;;;17.04;54.78
26859;BME280;14429;48.346;16.338;2023-05-17T06:24:12;99703.84;;;16.67;55.55
26859;BME280;14429;48.346;16.338;2023-05-17T06:26:37;99711.63;;;17.07;54.97
26859;BME280;14429;48.346;16.338;2023-05-17T06:29:02;99718.84;;;17.16;54.77
26859;BME280;14429;48.346;16.338;2023-05-17T06:31:28;99709.91;;;17.15;54.65
26859;BME280;14429;48.346;16.338;2023-05-17T06:33:54;99717.72;;;16.99;54.71
26859;BME280;14429;48.346;16.338;2023-05-17T06:36:19;99721.69;;;16.96;54.62
26859;BME280;14429;48.346;16.338;2023-05-17T06:38:46;99722.97;;;17.10;54.85
26859;BME280;14429;48.346;16.338;2023-05-17T06:41:11;99720.56;;;17.17;54.71
26859;BME280;14429;48.346;16.338;2023-05-17T06:43:36;99725.94;;;17.07;55.06
26859;BME280;14429;48.346;16.338;2023-05-17T06:46:02;99739.81;;;16.94;55.41
26859;BME280;14429;48.346;16.338;2023-05-17T06:48:27;99725.09;;;16.88;55.16
26859;BME280;14429;48.346;16.338;2023-05-17T06:50:53;99734.44;;;17.12;55.02
26859;BME280;14429;48.346;16.338;2023-05-17T06:53:18;99742.38;;;17.04;55.27
26859;BME280;14429;48.346;16.338;2023-05-17T06:55:45;99743.13;;;16.88;55.56
26859;BME280;14429;48.346;16.338;2023-05-17T06:58:10;99740.09;;;17.00;55.58
26859;BME280;14429;48.346;16.338;2023-05-17T07:00:36;99749.19;;;16.90;55.01
26859;BME280;14429;48.346;16.338;2023-05-17T07:03:01;99759.72;;;16.65;55.69
26859;BME280;14429;48.346;16.338;2023-05-17T07:05:27;99764.66;;;16.50;56.50
26859;BME280;14429;48.346;16.338;2023-05-17T07:07:52;99773.31;;;16.73;56.55
26859;BME280;14429;48.346;16.338;2023-05-17T07:10:18;99769.31;;;16.86;56.04
26859;BME280;14429;48.346;16.338;2023-05-17T07:12:46;99776.97;;;16.99;55.48
26859;BME280;14429;48.346;16.338;2023-05-17T07:15:11;99787.34;;;16.57;56.10
26859;BME280;14429;48.346;16.338;2023-05-17T07:17:37;99778.22;;;16.01;57.25
26859;BME280;14429;48.346;16.338;2023-05-17T07:20:03;99771.88;;;16.59;56.83
26859;BME280;14429;48.346;16.338;2023-05-17T07:22:28;99788.06;;;16.69;56.40
26859;BME280;14429;48.346;16.338;2023-05-17T07:24:54;99793.44;;;16.69;56.21
26859;BME280;14429;48.346;16.338;2023-05-17T07:27:19;99794.28;;;16.69;55.90
26859;BME280;14429;48.346;16.338;2023-05-17T07:29:46;99791.16;;;16.83;55.80
26859;BME280;14429;48.346;16.338;2023-05-17T07:32:11;99800.25;;;16.73;55.91
26859;BME280;14429;48.346;16.338;2023-05-17T07:34:37;99808.44;;;16.71;55.83
26859;BME280;14429;48.346;16.338;2023-05-17T07:37:02;99800.38;;;16.71;55.94
26859;BME280;14429;48.346;16.338;2023-05-17T07:39:28;99801.09;;;16.73;55.70
26859;BME280;14429;48.346;16.338;2023-05-17T07:41:53;99809.31;;;16.81;55.83
26859;BME280;14429;48.346;16.338;2023-05-17T07:44:19;99810.31;;;16.80;55.69
26859;BME280;14429;48.346;16.338;2023-05-17T07:46:46;99821.47;;;16.57;56.33
26859;BME280;14429;48.346;16.338;2023-05-17T07:49:11;99824.75;;;16.79;55.80
26859;BME280;14429;48.346;16.338;2023-05-17T07:51:37;99828.81;;;16.45;56.34
26859;BME280;14429;48.346;16.338;2023-05-17T07:54:03;99826.75;;;16.77;55.94
26859;BME280;14429;48.346;16.338;2023-05-17T07:56:28;99830.44;;;16.76;55.91
26859;BME280;14429;48.346;16.338;2023-05-17T07:58:54;99822.50;;;16.65;55.97
26859;BME280;14429;48.346;16.338;2023-05-17T08:01:19;99830.41;;;16.67;55.80
26859;BME280;14429;48.346;16.338;2023-05-17T08:03:46;99825.06;;;16.76;55.81
26859;BME280;14429;48.346;16.338;2023-05-17T08:06:11;99829.16;;;16.80;55.76
26859;BME280;14429;48.346;16.338;2023-05-17T08:08:37;99822.78;;;16.81;55.48
26859;BME280;14429;48.346;16.338;2023-05-17T08:11:03;99828.31;;;16.79;55.57
26859;BME280;14429;48.346;16.338;2023-05-17T08:13:28;99838.19;;;16.60;56.08
26859;BME280;14429;48.346;16.338;2023-05-17T08:15:54;99842.19;;;16.75;55.87
26859;BME280;14429;48.346;16.338;2023-05-17T08:18:19;99848.16;;;16.69;55.63
26859;BME280;14429;48.346;16.338;2023-05-17T08:20:46;99844.47;;;16.70;55.96
26859;BME280;14429;48.346;16.338;2023-05-17T08:23:12;99843.22;;;16.83;55.54
26859;BME280;14429;48.346;16.338;2023-05-17T08:25:38;99841.22;;;16.76;55.87
26859;BME280;14429;48.346;16.338;2023-05-17T08:28:03;99842.19;;;16.75;55.69
26859;BME280;14429;48.346;16.338;2023-05-17T08:30:29;99842.34;;;16.73;55.81
26859;BME280;14429;48.346;16.338;2023-05-17T08:32:54;99852.41;;;16.81;55.67
26859;BME280;14429;48.346;16.338;2023-05-17T08:35:19;99851.28;;;16.83;55.48
26859;BME280;14429;48.346;16.338;2023-05-17T08:37:46;99852.69;;;16.69;55.84
26859;BME280;14429;48.346;16.338;2023-05-17T08:40:12;99854.69;;;16.76;55.66
26859;BME280;14429;48.346;16.338;2023-05-17T08:42:38;99864.88;;;16.82;55.54
26859;BME280;14429;48.346;16.338;2023-05-17T08:45:05;99863.72;;;16.66;55.91
26859;BME280;14429;48.346;16.338;2023-05-17T08:47:31;99863.47;;;16.78;55.71
26859;BME280;14429;48.346;16.338;2023-05-17T08:49:57;99871.09;;;16.64;55.31
26859;BME280;14429;48.346;16.338;2023-05-17T08:52:23;99880.16;;;16.63;55.83
26859;BME280;14429;48.346;16.338;2023-05-17T08:54:49;99873.06;;;16.62;56.15
26859;BME280;14429;48.346;16.338;2023-05-17T08:57:15;99867.81;;;16.60;55.30
26859;BME280;14429;48.346;16.338;2023-05-17T08:59:41;99863.72;;;16.75;55.83
26859;BME280;14429;48.346;16.338;2023-05-17T09:02:08;99862.03;;;16.65;56.07
26859;BME280;14429;48.346;16.338;2023-05-17T09:04:34;99855.53;;;16.76;55.60
26859;BME280;14429;48.346;16.338;2023-05-17T09:07:00;99867.56;;;16.73;55.56
26859;BME280;14429;48.346;16.338;2023-05-17T09:09:25;99868.00;;;16.77;55.81
26859;BME280;14429;48.346;16.338;2023-05-17T09:11:52;99874.50;;;16.75;55.61
26859;BME280;14429;48.346;16.338;2023-05-17T09:14:17;99882.66;;;16.45;56.49
26859;BME280;14429;48.346;16.338;2023-05-17T09:16:43;99875.56;;;16.45;56.87
26859;BME280;14429;48.346;16.338;2023-05-17T09:19:13;99891.09;;;16.61;56.31
26859;BME280;14429;48.346;16.338;2023-05-17T09:21:39;99892.16;;;16.49;56.50
26859;BME280;14429;48.346;16.338;2023-05-17T09:24:04;99886.97;;;16.67;56.03
26859;BME280;14429;48.346;16.338;2023-05-17T09:26:37;99887.09;;;16.56;56.18
26859;BME280;14429;48.346;16.338;2023-05-17T09:29:08;99895.69;;;16.41;56.88
26859;BME280;14429;48.346;16.338;2023-05-17T09:31:33;99889.28;;;16.42;55.66
26859;BME280;14429;48.346;16.338;2023-05-17T09:33:58;99906.34;;;16.51;56.52
26859;BME280;14429;48.346;16.338;2023-05-17T09:36:24;99904.41;;;16.63;56.26
26859;BME280;14429;48.346;16.338;2023-05-17T09:38:53;99901.31;;;16.38;56.83
26859;BME280;14429;48.346;16.338;2023-05-17T09:41:20;99908.50;;;16.57;56.28
26859;BME280;14429;48.346;16.338;2023-05-17T09:43:45;99912.16;;;16.56;56.43
26859;BME280;14429;48.346;16.338;2023-05-17T09:46:12;99911.56;;;16.53;56.35
26859;BME280;14429;48.346;16.338;2023-05-17T09:48:38;99920.41;;;16.64;56.17
26859;BME280;14429;48.346;16.338;2023-05-17T09:51:04;99930.91;;;16.67;56.10
26859;BME280;14429;48.346;16.338;2023-05-17T09:53:31;99924.09;;;16.63;56.07
26859;BME280;14429;48.346;16.338;2023-05-17T09:55:58;99926.53;;;16.66;56.00
26859;BME280;14429;48.346;16.338;2023-05-17T09:58:25;99930.31;;;16.64;56.17
26859;BME280;14429;48.346;16.338;2023-05-17T10:00:52;99937.72;;;16.62;56.10
26859;BME280;14429;48.346;16.338;2023-05-17T10:03:19;99949.00;;;16.56;56.11
26859;BME280;14429;48.346;16.338;2023-05-17T10:05:45;99936.06;;;16.41;55.65
26859;BME280;14429;48.346;16.338;2023-05-17T10:08:14;99940.63;;;16.49;56.56
26859;BME280;14429;48.346;16.338;2023-05-17T10:10:42;99943.50;;;16.57;56.32
26859;BME280;14429;48.346;16.338;2023-05-17T10:13:09;99942.94;;;16.24;56.14
26859;BME280;14429;48.346;16.338;2023-05-17T10:15:36;99944.22;;;16.59;56.41
26859;BME280;14429;48.346;16.338;2023-05-17T10:18:03;99946.13;;;16.39;55.90
26859;BME280;14429;48.346;16.338;2023-05-17T10:20:31;99953.03;;;16.61;56.19
26859;BME280;14429;48.346;16.338;2023-05-17T10:22:57;99953.19;;;16.40;56.76
26859;BME280;14429;48.346;16.338;2023-05-17T10:25:24;99963.91;;;16.60;56.28
26859;BME280;14429;48.346;16.338;2023-05-17T10:27:49;99970.69;;;16.54;56.32
26859;BME280;14429;48.346;16.338;2023-05-17T10:30:16;99969.28;;;16.60;56.33
26859;BME280;14429;48.346;16.338;2023-05-17T10:32:42;99960.19;;;16.22;57.64
26859;BME280;14429;48.346;16.338;2023-05-17T10:35:09;99970.69;;;16.54;56.50
26859;BME280;14429;48.346;16.338;2023-05-17T10:37:38;99972.66;;;16.52;56.65
26859;BME280;14429;48.346;16.338;2023-05-17T10:40:05;99974.25;;;16.55;56.51
26859;BME280;14429;48.346;16.338;2023-05-17T10:42:31;99970.69;;;16.54;56.58
26859;BME280;14429;48.346;16.338;2023-05-17T10:44:56;99979.22;;;16.59;56.43
26859;BME280;14429;48.346;16.338;2023-05-17T10:47:30;99983.75;;;16.59;56.40
26859;BME280;14429;48.346;16.338;2023-05-17T10:49:56;99972.25;;;16.57;56.48
26859;BME280;14429;48.346;16.338;2023-05-17T10:52:21;99964.06;;;16.58;56.36
26859;BME280;14429;48.346;16.338;2023-05-17T10:54:51;99963.31;;;16.27;57.52
26859;BME280;14429;48.346;16.338;2023-05-17T10:57:20;99965.16;;;16.56;56.38
26859;BME280;14429;48.346;16.338;2023-05-17T10:59:56;99972.38;;;16.26;56.32
26859;BME280;14429;48.346;16.338;2023-05-17T11:02:22;99969.63;;;16.37;57.07
26859;BME280;14429;48.346;16.338;2023-05-17T11:04:49;99968.50;;;16.39;56.84
26859;BME280;14429;48.346;16.338;2023-05-17T11:07:23;99963.72;;;16.43;56.83
26859;BME280;14429;48.346;16.338;2023-05-17T11:09:51;99964.22;;;16.37;56.33
26859;BME280;14429;48.346;16.338;2023-05-17T11:12:27;99970.03;;;15.72;58.52
26859;BME280;14429;48.346;16.338;2023-05-17T11:14:54;99961.72;;;16.15;57.53
26859;BME280;14429;48.346;16.338;2023-05-17T11:17:20;99954.88;;;16.31;57.37
26859;BME280;14429;48.346;16.338;2023-05-17T11:20:00;99948.81;;;16.09;57.32
26859;BME280;14429;48.346;16.338;2023-05-17T11:22:27;99951.03;;;16.34;57.34
26859;BME280;14429;48.346;16.338;2023-05-17T11:24:56;99945.81;;;16.42;56.76
26859;BME280;14429;48.346;16.338;2023-05-17T11:27:22;99938.22;;;16.46;56.70
26859;BME280;14429;48.346;16.338;2023-05-17T11:29:48;99953.81;;;16.23;57.55
26859;BME280;14429;48.346;16.338;2023-05-17T11:32:13;99963.56;;;16.15;57.67
26859;BME280;14429;48.346;16.338;2023-05-17T11:34:39;99968.41;;;16.20;57.83
26859;BME280;14429;48.346;16.338;2023-05-17T11:37:09;99977.28;;;16.41;57.01
26859;BME280;14429;48.346;16.338;2023-05-17T11:39:35;99986.63;;;16.37;57.03
26859;BME280;14429;48.346;16.338;2023-05-17T11:42:02;99980.91;;;16.31;57.29
26859;BME280;14429;48.346;16.338;2023-05-17T11:44:28;100000.38;;;16.14;57.83
26859;BME280;14429;48.346;16.338;2023-05-17T11:47:01;100000.47;;;16.33;56.98
26859;BME280;14429;48.346;16.338;2023-05-17T11:49:27;99998.72;;;16.43;57.01
26859;BME280;14429;48.346;16.338;2023-05-17T11:51:55;100001.09;;;16.45;56.90
26859;BME280;14429;48.346;16.338;2023-05-17T11:54:20;100018.69;;;16.49;56.61
26859;BME280;14429;48.346;16.338;2023-05-17T11:56:48;100007.63;;;16.43;56.83
26859;BME280;14429;48.346;16.338;2023-05-17T11:59:19;100021.78;;;16.45;56.91
26859;BME280;14429;48.346;16.338;2023-05-17T12:01:45;100026.88;;;16.39;57.25
26859;BME280;14429;48.346;16.338;2023-05-17T12:04:12;100032.16;;;16.49;56.70
26859;BME280;14429;48.346;16.338;2023-05-17T12:06:38;100034.00;;;16.49;56.78
26859;BME280;14429;48.346;16.338;2023-05-17T12:09:03;100032.25;;;16.39;57.12
26859;BME280;14429;48.346;16.338;2023-05-17T12:11:29;100018.25;;;16.45;56.75
26859;BME280;14429;48.346;16.338;2023-05-17T12:13:55;100028.31;;;16.43;57.00
26859;BME280;14429;48.346;16.338;2023-05-17T12:16:22;100017.03;;;16.28;57.28
26859;BME280;14429;48.346;16.338;2023-05-17T12:18:50;100018.06;;;16.37;57.18
26859;BME280;14429;48.346;16.338;2023-05-17T12:21:17;100025.16;;;16.38;56.81
26859;BME280;14429;48.346;16.338;2023-05-17T12:23:44;100017.84;;;16.49;56.68
26859;BME280;14429;48.346;16.338;2023-05-17T12:26:11;100034.38;;;16.35;57.32
26859;BME280;14429;48.346;16.338;2023-05-17T12:28:38;100033.38;;;16.36;57.23
26859;BME280;14429;48.346;16.338;2023-05-17T12:31:06;100034.03;;;15.78;57.75
26859;BME280;14429;48.346;16.338;2023-05-17T12:33:36;100030.41;;;16.19;57.77
26859;BME280;14429;48.346;16.338;2023-05-17T12:36:02;100032.41;;;16.17;57.64
26859;BME280;14429;48.346;16.338;2023-05-17T12:38:29;100041.81;;;15.91;58.83
26859;BME280;14429;48.346;16.338;2023-05-17T12:40:55;100045.88;;;16.06;58.00
26859;BME280;14429;48.346;16.338;2023-05-17T12:43:22;100043.34;;;15.74;58.00
26859;BME280;14429;48.346;16.338;2023-05-17T12:45:48;100047.09;;;16.13;57.98
26859;BME280;14429;48.346;16.338;2023-05-17T12:48:13;100048.34;;;16.29;57.27
26859;BME280;14429;48.346;16.338;2023-05-17T12:50:42;100039.84;;;16.34;57.20
26859;BME280;14429;48.346;16.338;2023-05-17T12:53:07;100050.78;;;16.32;57.34
26859;BME280;14429;48.346;16.338;2023-05-17T12:55:35;100048.09;;;16.32;57.18
26859;BME280;14429;48.346;16.338;2023-05-17T12:58:01;100038.97;;;16.24;57.58
26859;BME280;14429;48.346;16.338;2023-05-17T13:00:27;100042.44;;;16.35;57.17
26859;BME280;14429;48.346;16.338;2023-05-17T13:02:52;100041.59;;;16.35;57.17
26859;BME280;14429;48.346;16.338;2023-05-17T13:05:18;100040.13;;;16.31;57.39
26859;BME280;14429;48.346;16.338;2023-05-17T13:07:46;100051.19;;;16.28;57.40
26859;BME280;14429;48.346;16.338;2023-05-17T13:10:22;100041.59;;;16.35;57.26
26859;BME280;14429;48.346;16.338;2023-05-17T13:12:55;100051.44;;;16.25;57.60
26859;BME280;14429;48.346;16.338;2023-05-17T13:15:26;100055.41;;;16.30;57.46
26859;BME280;14429;48.346;16.338;2023-05-17T13:17:52;100048.41;;;16.39;57.15
26859;BME280;14429;48.346;16.338;2023-05-17T13:20:17;100054.75;;;16.38;57.04
26859;BME280;14429;48.346;16.338;2023-05-17T13:22:46;100049.44;;;16.27;57.72
26859;BME280;14429;48.346;16.338;2023-05-17T13:25:11;100049.44;;;16.27;57.67
26859;BME280;14429;48.346;16.338;2023-05-17T13:27:37;100064.81;;;16.36;57.24
26859;BME280;14429;48.346;16.338;2023-05-17T13:30:03;100061.41;;;16.34;57.21
26859;BME280;14429;48.346;16.338;2023-05-17T13:32:29;100049.81;;;16.02;58.96
26859;BME280;14429;48.346;16.338;2023-05-17T13:34:54;100058.00;;;16.32;57.39
26859;BME280;14429;48.346;16.338;2023-05-17T13:37:20;100056.72;;;16.16;57.85
26859;BME280;14429;48.346;16.338;2023-05-17T13:39:46;100057.63;;;16.16;58.09
26859;BME280;14429;48.346;16.338;2023-05-17T13:42:12;100068.78;;;15.70;60.38
26859;BME280;14429;48.346;16.338;2023-05-17T13:44:38;100073.41;;;16.10;58.01
26859;BME280;14429;48.346;16.338;2023-05-17T13:47:04;100080.31;;;16.23;58.08
26859;BME280;14429;48.346;16.338;2023-05-17T13:49:30;100086.41;;;16.25;57.69
26859;BME280;14429;48.346;16.338;2023-05-17T13:51:55;100083.19;;;16.31;57.54
26859;BME280;14429;48.346;16.338;2023-05-17T13:54:21;100084.19;;;16.30;57.39
26859;BME280;14429;48.346;16.338;2023-05-17T13:56:47;100093.00;;;16.32;57.39
26859;BME280;14429;48.346;16.338;2023-05-17T13:59:13;100093.59;;;16.35;57.21
26859;BME280;14429;48.346;16.338;2023-05-17T14:01:39;100092.84;;;16.33;57.21
26859;BME280;14429;48.346;16.338;2023-05-17T14:04:06;100089.06;;;16.36;57.31
26859;BME280;14429;48.346;16.338;2023-05-17T14:06:31;100088.13;;;16.26;57.67
26859;BME280;14429;48.346;16.338;2023-05-17T14:08:57;100088.13;;;16.26;57.75
26859;BME280;14429;48.346;16.338;2023-05-17T14:11:22;100095.75;;;16.21;57.85
26859;BME280;14429;48.346;16.338;2023-05-17T14:13:49;100091.06;;;16.23;57.58
26859;BME280;14429;48.346;16.338;2023-05-17T14:16:14;100092.91;;;16.22;57.73
26859;BME280;14429;48.346;16.338;2023-05-17T14:18:40;100094.25;;;16.28;57.75
26859;BME280;14429;48.346;16.338;2023-05-17T14:21:05;100090.69;;;16.27;57.75
26859;BME280;14429;48.346;16.338;2023-05-17T14:23:31;100089.56;;;16.30;57.51
26859;BME280;14429;48.346;16.338;2023-05-17T14:25:56;100088.66;;;16.20;58.12
26859;BME280;14429;48.346;16.338;2023-05-17T14:28:22;100091.25;;;16.31;57.58
26859;BME280;14429;48.346;16.338;2023-05-17T14:30:48;100093.31;;;16.18;58.42
26859;BME280;14429;48.346;16.338;2023-05-17T14:33:14;100102.44;;;16.26;57.64
26859;BME280;14429;48.346;16.338;2023-05-17T14:35:39;100102.25;;;16.08;58.51
26859;BME280;14429;48.346;16.338;2023-05-17T14:38:04;100103.22;;;16.18;58.01
26859;BME280;14429;48.346;16.338;2023-05-17T14:40:30;100114.38;;;16.13;58.46